createdAt,value
2023-02-04T00:00:23.581Z,1.25
2023-02-04T00:02:26.352Z,3.00
2023-02-04T00:04:29.048Z,1.75
2023-02-04T00:06:31.745Z,1.20
2023-02-04T00:08:34.296Z,1.27
2023-02-04T00:10:37.861Z,1.13
2023-02-04T00:12:40.399Z,1.27
2023-02-04T00:14:43.018Z,4.47
2023-02-04T00:16:46.898Z,0.98
2023-02-04T00:18:49.431Z,1.33
2023-02-04T00:20:51.987Z,4.00
2023-02-04T00:22:54.981Z,1.17
2023-02-04T00:24:57.534Z,3.03
2023-02-04T00:27:00.115Z,1.30
2023-02-04T00:29:02.735Z,1.38
2023-02-04T00:31:05.463Z,1.30
2023-02-04T00:33:09.383Z,1.33
2023-02-04T00:35:12.119Z,1.23
2023-02-04T00:37:14.645Z,1.00
2023-02-04T00:39:17.390Z,0.70
2023-02-04T00:41:20.253Z,1.40
2023-02-04T00:43:22.826Z,1.08
2023-02-04T00:45:25.504Z,4.93
2023-02-04T00:47:28.103Z,2.92
2023-02-04T00:49:32.164Z,1.20
2023-02-04T00:51:35.155Z,1.20
2023-02-04T00:53:37.763Z,0.95
2023-02-04T00:55:40.361Z,2.00
2023-02-04T00:57:42.928Z,2.40
2023-02-04T00:59:45.555Z,1.15
2023-02-04T01:01:48.259Z,1.80
2023-02-04T01:03:50.827Z,1.58
2023-02-04T01:05:54.819Z,1.10
2023-02-04T01:07:57.419Z,0.80
2023-02-04T01:10:00.009Z,1.95
2023-02-04T01:12:02.740Z,4.35
2023-02-04T01:14:05.346Z,3.45
2023-02-04T01:16:07.932Z,2.83
2023-02-04T01:18:10.493Z,2.10
2023-02-04T01:20:13.583Z,1.20
2023-02-04T01:22:17.512Z,1.33
2023-02-04T01:24:20.168Z,3.90
2023-02-04T01:26:23.095Z,1.27
2023-02-04T01:28:25.747Z,2.47
2023-02-04T01:30:28.424Z,1.92
2023-02-04T01:32:31.065Z,2.80
2023-02-04T01:34:33.629Z,1.30
2023-02-04T01:36:36.194Z,4.30
2023-02-04T01:38:40.166Z,1.75
2023-02-04T01:40:43.231Z,1.77
2023-02-04T01:42:45.885Z,2.15
2023-02-04T01:44:48.976Z,3.75
2023-02-04T01:46:51.565Z,1.33
2023-02-04T01:48:54.179Z,1.55
2023-02-04T01:51:04.160Z,1.40
2023-02-04T01:53:07.032Z,3.25
2023-02-04T01:55:17.908Z,2.55
2023-02-04T01:57:20.648Z,3.47
2023-02-04T01:59:24.254Z,2.08
2023-02-04T02:01:39.112Z,1.60
2023-02-04T02:03:41.799Z,1.75
2023-02-04T02:05:46.433Z,3.38
2023-02-04T02:07:50.247Z,3.05
2023-02-04T02:09:52.857Z,5.07
2023-02-04T02:11:56.858Z,2.28
2023-02-04T02:13:59.533Z,3.10
2023-02-04T02:16:02.126Z,2.08
2023-02-04T02:18:05.055Z,3.33
2023-02-04T02:20:08.733Z,6.90
2023-02-04T02:22:16.473Z,5.53
2023-02-04T02:24:29.116Z,4.90
2023-02-04T02:26:31.703Z,2.38
2023-02-04T02:28:34.296Z,2.42
2023-02-04T02:30:37.313Z,2.83
2023-02-04T02:32:40.332Z,2.15
2023-02-04T02:34:44.423Z,3.42
2023-02-04T02:36:47.094Z,2.22
2023-02-04T02:38:49.692Z,2.67
2023-02-04T02:40:54.002Z,2.22
2023-02-04T02:42:56.692Z,2.63
2023-02-04T02:45:00.176Z,4.22
2023-02-04T02:47:02.886Z,6.05
2023-02-04T02:49:05.644Z,3.22
2023-02-04T02:51:08.337Z,6.10
2023-02-04T02:53:12.788Z,2.58
2023-02-04T02:55:17.701Z,2.67
2023-02-04T02:57:23.950Z,1.83
2023-02-04T02:59:30.028Z,1.85
2023-02-04T03:01:32.688Z,2.05
2023-02-04T03:03:37.377Z,2.60
2023-02-04T03:05:43.109Z,6.57
2023-02-04T03:07:45.762Z,2.78
2023-02-04T03:09:48.553Z,1.98
2023-02-04T03:11:51.177Z,3.80
2023-02-04T03:13:55.245Z,2.00
2023-02-04T03:15:58.677Z,2.05
2023-02-04T03:18:01.930Z,3.83
2023-02-04T03:20:05.540Z,3.17
2023-02-04T03:22:08.832Z,4.60
2023-02-04T03:24:11.457Z,2.15
2023-02-04T03:26:14.081Z,2.67
2023-02-04T03:28:16.767Z,2.65
2023-02-04T03:30:21.258Z,2.92
2023-02-04T03:32:23.920Z,4.38
2023-02-04T03:34:26.918Z,2.88
2023-02-04T03:36:29.537Z,3.22
2023-02-04T03:38:33.840Z,4.63
2023-02-04T03:40:36.525Z,2.65
2023-02-04T03:42:39.178Z,1.83
2023-02-04T03:44:41.767Z,4.63
2023-02-04T03:46:45.772Z,4.78
2023-02-04T03:48:48.348Z,2.30
2023-02-04T03:50:50.925Z,2.47
2023-02-04T03:52:53.829Z,2.60
2023-02-04T03:54:56.418Z,2.83
2023-02-04T03:56:58.943Z,5.10
2023-02-04T03:59:01.540Z,4.25
2023-02-04T04:01:04.116Z,5.38
2023-02-04T04:03:08.053Z,2.35
2023-02-04T04:05:11.677Z,4.07
2023-02-04T04:07:14.278Z,2.28
2023-02-04T04:09:16.855Z,4.75
2023-02-04T04:11:19.515Z,2.70
2023-02-04T04:13:22.095Z,4.90
2023-02-04T04:15:25.874Z,3.67
2023-02-04T04:17:28.446Z,3.15
2023-02-04T04:19:33.170Z,1.88
2023-02-04T04:21:35.759Z,3.67
2023-02-04T04:23:38.954Z,8.30
2023-02-04T04:25:41.578Z,4.47
2023-02-04T04:27:44.333Z,3.00
2023-02-04T04:29:46.909Z,5.88
2023-02-04T04:31:49.672Z,5.07
2023-02-04T04:33:52.286Z,6.15
2023-02-04T04:35:56.180Z,5.55
2023-02-04T04:37:58.769Z,6.13
2023-02-04T04:40:01.716Z,5.53
2023-02-04T04:42:04.360Z,2.85
2023-02-04T04:44:07.425Z,6.07
2023-02-04T04:46:09.983Z,7.40
2023-02-04T04:48:12.750Z,3.60
2023-02-04T04:50:15.351Z,2.42
2023-02-04T04:52:19.286Z,3.40
2023-02-04T04:54:21.835Z,6.03
2023-02-04T04:56:24.399Z,5.75
2023-02-04T04:58:26.960Z,4.47
2023-02-04T05:00:29.771Z,5.07
2023-02-04T05:02:32.441Z,3.90
2023-02-04T05:04:35.060Z,3.30
2023-02-04T05:06:37.689Z,3.90
2023-02-04T05:08:41.644Z,1.75
2023-02-04T05:10:45.632Z,1.88
2023-02-04T05:12:48.217Z,4.97
2023-02-04T05:14:50.771Z,3.40
2023-02-04T05:16:53.367Z,4.18
2023-02-04T05:18:55.937Z,3.05
2023-02-04T05:20:58.526Z,3.80
2023-02-04T05:23:02.261Z,2.75
2023-02-04T05:25:08.028Z,4.45
2023-02-04T05:27:10.592Z,5.70
2023-02-04T05:29:13.159Z,5.15
2023-02-04T05:31:15.843Z,3.92
2023-02-04T05:33:18.547Z,6.20
2023-02-04T05:35:21.634Z,3.80
2023-02-04T05:37:24.175Z,4.82
2023-02-04T05:39:26.738Z,3.65
2023-02-04T05:41:30.596Z,4.47
2023-02-04T05:43:33.161Z,6.28
2023-02-04T05:45:35.822Z,4.22
2023-02-04T05:47:38.414Z,4.65
2023-02-04T05:49:40.980Z,6.10
2023-02-04T05:51:46.229Z,4.68
2023-02-04T05:53:48.824Z,7.32
2023-02-04T05:55:51.503Z,3.60
2023-02-04T05:57:55.388Z,3.70
2023-02-04T05:59:57.975Z,4.97
2023-02-04T06:02:00.603Z,3.75
2023-02-04T06:04:03.290Z,5.85
2023-02-04T06:06:06.175Z,5.22
2023-02-04T06:08:08.734Z,3.22
2023-02-04T06:10:12.320Z,7.07
2023-02-04T06:12:14.902Z,3.20
2023-02-04T06:14:18.798Z,4.13
2023-02-04T06:16:21.484Z,4.57
2023-02-04T06:18:27.039Z,4.05
2023-02-04T06:20:29.999Z,2.95
2023-02-04T06:22:32.799Z,8.52
2023-02-04T06:24:37.367Z,5.43
2023-02-04T06:26:40.009Z,7.38
2023-02-04T06:28:42.588Z,4.97
2023-02-04T06:30:46.668Z,5.22
2023-02-04T06:32:49.331Z,4.97
2023-02-04T06:34:51.923Z,5.85
2023-02-04T06:36:54.469Z,5.57
2023-02-04T06:38:57.453Z,6.43
2023-02-04T06:40:59.993Z,3.63
2023-02-04T06:43:04.301Z,6.15
2023-02-04T06:45:08.364Z,5.07
2023-02-04T06:47:12.254Z,8.32
2023-02-04T06:49:14.804Z,6.47
2023-02-04T06:51:19.979Z,6.60
2023-02-04T06:53:22.716Z,7.35
2023-02-04T06:55:25.278Z,5.22
2023-02-04T06:57:27.917Z,10.70
2023-02-04T06:59:33.046Z,6.03
2023-02-04T07:01:35.633Z,6.78
2023-02-04T07:03:39.546Z,7.10
2023-02-04T07:05:42.137Z,7.22
2023-02-04T07:07:44.707Z,6.50
2023-02-04T07:09:47.352Z,11.30
2023-02-04T07:11:49.906Z,7.30
2023-02-04T07:13:52.459Z,9.40
2023-02-04T07:15:55.065Z,11.20
2023-02-04T07:17:57.630Z,7.50
2023-02-04T07:20:01.566Z,12.52
2023-02-04T07:22:04.193Z,8.52
2023-02-04T07:24:07.160Z,7.05
2023-02-04T07:26:09.714Z,7.78
2023-02-04T07:28:12.398Z,13.95
2023-02-04T07:30:15.376Z,15.05
2023-02-04T07:32:17.962Z,16.05
2023-02-04T07:34:20.714Z,11.07
2023-02-04T07:36:26.200Z,13.90
2023-02-04T07:38:28.807Z,14.15
2023-02-04T07:40:31.778Z,14.40
2023-02-04T07:42:34.758Z,10.07
2023-02-04T07:44:37.584Z,18.98
2023-02-04T07:46:40.196Z,15.57
2023-02-04T07:48:42.806Z,15.00
2023-02-04T07:50:45.419Z,19.55
2023-02-04T07:52:49.296Z,20.08
2023-02-04T07:54:52.464Z,11.45
2023-02-04T07:56:55.044Z,17.05
2023-02-04T07:58:57.604Z,11.55
2023-02-04T08:01:01.248Z,13.85
2023-02-04T08:03:03.798Z,11.80
2023-02-04T08:05:07.235Z,17.80
2023-02-04T08:07:09.790Z,14.90
2023-02-04T08:09:16.182Z,15.35
2023-02-04T08:11:18.809Z,13.75
2023-02-04T08:13:21.332Z,18.88
2023-02-04T08:15:23.943Z,16.92
2023-02-04T08:17:26.498Z,14.75
2023-02-04T08:19:29.066Z,15.32
2023-02-04T08:21:31.632Z,16.90
2023-02-04T08:23:34.321Z,13.85
2023-02-04T08:25:38.234Z,12.90
2023-02-04T08:27:40.874Z,16.00
2023-02-04T08:29:43.469Z,18.45
2023-02-04T08:31:47.709Z,15.63
2023-02-04T08:33:50.331Z,21.58
2023-02-04T08:35:55.213Z,15.32
2023-02-04T08:37:58.083Z,18.40
2023-02-04T08:40:00.729Z,16.58
2023-02-04T08:42:04.766Z,16.73
2023-02-04T08:44:07.462Z,22.90
2023-02-04T08:46:10.211Z,18.63
2023-02-04T08:48:12.803Z,14.50
2023-02-04T08:50:15.612Z,23.63
2023-02-04T08:52:18.987Z,27.08
2023-02-04T08:54:21.662Z,20.30
2023-02-04T08:56:24.187Z,20.08
2023-02-04T08:58:28.127Z,15.10
2023-02-04T09:00:31.542Z,15.63
2023-02-04T09:02:34.370Z,19.52
2023-02-04T09:04:36.967Z,26.73
2023-02-04T09:06:39.532Z,21.05
2023-02-04T09:08:42.105Z,23.30
2023-02-04T09:10:44.680Z,26.17
2023-02-04T09:12:47.323Z,23.95
2023-02-04T09:14:51.185Z,20.13
2023-02-04T09:16:53.753Z,23.05
2023-02-04T09:18:56.418Z,21.83
2023-02-04T09:21:02.162Z,18.95
2023-02-04T09:23:04.832Z,19.40
2023-02-04T09:25:08.399Z,31.13
2023-02-04T09:27:11.014Z,19.13
2023-02-04T09:29:13.617Z,22.80
2023-02-04T09:31:17.818Z,25.38
2023-02-04T09:33:20.486Z,21.85
2023-02-04T09:35:23.081Z,23.65
2023-02-04T09:37:27.041Z,28.77
2023-02-04T09:39:29.886Z,25.05
2023-02-04T09:41:33.929Z,25.58
2023-02-04T09:43:39.949Z,22.40
2023-02-04T09:45:42.661Z,23.63
2023-02-04T09:47:46.713Z,23.85
2023-02-04T09:49:49.247Z,21.33
2023-02-04T09:51:52.731Z,17.52
2023-02-04T09:54:03.650Z,27.77
2023-02-04T09:56:07.349Z,27.93
2023-02-04T09:58:16.368Z,20.67
2023-02-04T10:00:21.993Z,22.00
2023-02-04T10:02:27.067Z,30.95
2023-02-04T10:04:30.987Z,21.55
2023-02-04T10:06:33.733Z,23.38
2023-02-04T10:08:36.319Z,21.73
2023-02-04T10:10:40.322Z,21.80
2023-02-04T10:12:42.886Z,22.85
2023-02-04T10:14:45.759Z,22.52
2023-02-04T10:16:53.395Z,21.35
2023-02-04T10:18:57.023Z,24.67
2023-02-04T10:21:13.593Z,20.73
2023-02-04T10:23:16.219Z,23.60
2023-02-04T10:25:21.191Z,22.80
2023-02-04T10:27:23.712Z,24.20
2023-02-04T10:29:26.324Z,17.25
2023-02-04T10:31:32.019Z,20.92
2023-02-04T10:33:37.053Z,20.20
2023-02-04T10:35:46.758Z,24.33
2023-02-04T10:38:04.573Z,25.05
2023-02-04T10:40:07.815Z,22.42
2023-02-04T10:42:22.217Z,26.75
2023-02-04T10:44:28.791Z,14.45
2023-02-04T10:46:31.757Z,24.38
2023-02-04T10:48:41.338Z,21.33
2023-02-04T10:50:43.933Z,20.27
2023-02-04T10:52:50.737Z,19.55
2023-02-04T10:54:52.470Z,20.13
2023-02-04T10:58:57.472Z,15.90
2023-02-04T11:01:00.169Z,22.23
2023-02-04T11:03:08.078Z,18.98
2023-02-04T11:05:19.566Z,20.27
2023-02-04T11:07:23.751Z,19.00
2023-02-04T11:09:27.719Z,24.23
2023-02-04T11:11:30.306Z,18.45
2023-02-04T11:13:42.452Z,23.65
2023-02-04T11:15:50.159Z,17.58
2023-02-04T11:18:03.950Z,14.75
2023-02-04T11:20:17.279Z,15.65
2023-02-04T11:22:25.378Z,21.92
2023-02-04T11:24:34.382Z,17.92
2023-02-04T11:26:40.089Z,17.85
2023-02-04T11:28:49.655Z,19.33
2023-02-04T11:31:00.505Z,20.15
2023-02-04T11:33:05.253Z,19.17
2023-02-04T11:35:22.826Z,13.38
2023-02-04T11:37:37.201Z,15.60
2023-02-04T11:39:43.338Z,12.77
2023-02-04T11:41:46.719Z,15.65
2023-02-04T11:43:51.857Z,18.05
2023-02-04T11:46:03.719Z,19.67
2023-02-04T11:48:14.154Z,19.55
2023-02-04T11:50:22.293Z,25.95
2023-02-04T11:52:24.881Z,19.80
2023-02-04T11:54:27.412Z,14.55
2023-02-04T11:56:31.527Z,13.27
2023-02-04T11:58:34.602Z,14.07
2023-02-04T12:00:38.232Z,17.02
2023-02-04T12:02:46.799Z,18.48
2023-02-04T12:04:58.313Z,17.08
2023-02-04T12:07:03.344Z,13.05
2023-02-04T12:09:07.402Z,19.40
2023-02-04T12:11:12.660Z,24.13
2023-02-04T12:13:24.261Z,21.58
2023-02-04T12:15:35.783Z,12.85
2023-02-04T12:17:38.788Z,13.63
2023-02-04T12:19:41.391Z,13.63
2023-02-04T12:21:44.500Z,16.23
2023-02-04T12:23:47.051Z,14.65
2023-02-04T12:25:50.647Z,12.40
2023-02-04T12:27:54.444Z,17.35
2023-02-04T12:29:58.351Z,10.07
2023-02-04T12:32:00.956Z,14.20
2023-02-04T12:34:03.676Z,16.20
2023-02-04T12:36:06.857Z,13.80
2023-02-04T12:38:10.262Z,16.77
2023-02-04T12:40:16.167Z,16.02
2023-02-04T12:42:18.706Z,18.50
2023-02-04T12:44:21.327Z,24.88
2023-02-04T12:46:25.487Z,18.60
2023-02-04T12:48:28.162Z,14.60
2023-02-04T12:50:34.048Z,15.45
2023-02-04T12:52:36.866Z,16.05
2023-02-04T12:54:39.419Z,16.23
2023-02-04T12:56:43.715Z,20.75
2023-02-04T12:58:46.278Z,19.42
2023-02-04T13:00:48.852Z,17.65
2023-02-04T13:02:54.755Z,19.83
2023-02-04T13:04:57.663Z,22.67
2023-02-04T13:07:01.564Z,13.27
2023-02-04T13:09:04.843Z,16.25
2023-02-04T13:11:07.450Z,18.25
2023-02-04T13:13:09.994Z,13.57
2023-02-04T13:15:12.573Z,21.10
2023-02-04T13:17:15.115Z,15.70
2023-02-04T13:19:19.024Z,19.45
2023-02-04T13:21:21.619Z,21.23
2023-02-04T13:23:24.180Z,18.52
2023-02-04T13:25:26.798Z,13.50
2023-02-04T13:27:29.633Z,19.60
2023-02-04T13:29:32.367Z,12.52
2023-02-04T13:31:35.049Z,21.35
2023-02-04T13:33:37.601Z,16.83
2023-02-04T13:35:41.473Z,25.85
2023-02-04T13:37:44.427Z,25.00
2023-02-04T13:39:46.981Z,23.77
2023-02-04T13:41:49.514Z,17.15
2023-02-04T13:43:52.218Z,19.80
2023-02-04T13:45:54.827Z,15.15
2023-02-04T13:47:57.450Z,20.33
2023-02-04T13:50:00.208Z,20.33
2023-02-04T13:52:04.138Z,16.83
2023-02-04T13:54:06.791Z,18.52
2023-02-04T13:56:09.791Z,15.13
2023-02-04T13:58:12.461Z,17.75
2023-02-04T14:00:16.145Z,22.38
2023-02-04T14:02:18.879Z,26.08
2023-02-04T14:04:21.502Z,25.35
2023-02-04T14:06:33.250Z,20.67
2023-02-04T14:08:37.490Z,22.15
2023-02-04T14:10:40.040Z,25.85
2023-02-04T14:12:42.688Z,19.80
2023-02-04T14:14:45.274Z,26.02
2023-02-04T14:16:47.938Z,23.55
2023-02-04T14:18:51.893Z,12.45
2023-02-04T14:20:54.466Z,16.95
2023-02-04T14:22:57.061Z,20.23
2023-02-04T14:25:00.999Z,21.95
2023-02-04T14:27:07.286Z,24.88
2023-02-04T14:29:11.149Z,16.13
2023-02-04T14:31:13.691Z,20.13
2023-02-04T14:33:18.088Z,22.02
2023-02-04T14:35:21.004Z,25.45
2023-02-04T14:37:25.568Z,18.33
2023-02-04T14:39:28.088Z,25.40
2023-02-04T14:41:32.158Z,15.50
2023-02-04T14:43:37.384Z,16.63
2023-02-04T14:45:40.900Z,15.68
2023-02-04T14:47:43.579Z,21.63
2023-02-04T14:49:46.147Z,20.67
2023-02-04T14:51:48.720Z,18.60
2023-02-04T14:53:51.341Z,15.30
2023-02-04T14:55:53.919Z,15.98
2023-02-04T14:57:57.796Z,15.98
2023-02-04T15:00:00.374Z,19.02
2023-02-04T15:02:02.942Z,19.63
2023-02-04T15:04:05.702Z,21.15
2023-02-04T15:06:08.503Z,16.83
2023-02-04T15:08:11.138Z,16.95
2023-02-04T15:10:15.364Z,11.85
2023-02-04T15:12:18.103Z,15.07
2023-02-04T15:14:22.584Z,21.05
2023-02-04T15:16:25.175Z,16.17
2023-02-04T15:18:29.030Z,22.02
2023-02-04T15:20:31.996Z,22.65
2023-02-04T15:22:34.750Z,12.15
2023-02-04T15:24:37.371Z,16.17
2023-02-04T15:26:40.000Z,16.02
2023-02-04T15:28:42.610Z,17.80
2023-02-04T15:30:46.604Z,17.77
2023-02-04T15:32:49.248Z,20.65
2023-02-04T15:34:51.817Z,21.27
2023-02-04T15:36:54.443Z,20.20
2023-02-04T15:38:56.986Z,15.23
2023-02-04T15:40:59.551Z,24.45
2023-02-04T15:43:02.140Z,9.68
2023-02-04T15:45:05.272Z,21.98
2023-02-04T15:47:09.196Z,18.88
2023-02-04T15:49:11.759Z,18.45
2023-02-04T15:51:14.306Z,10.27
2023-02-04T15:53:16.983Z,18.00
2023-02-04T15:55:19.568Z,14.07
2023-02-04T15:57:22.180Z,18.85
2023-02-04T15:59:24.846Z,21.35
2023-02-04T16:01:27.436Z,15.60
2023-02-04T16:03:31.389Z,18.95
2023-02-04T16:05:33.910Z,19.13
2023-02-04T16:07:36.499Z,17.45
2023-02-04T16:09:39.115Z,22.45
2023-02-04T16:11:41.677Z,16.60
2023-02-04T16:13:44.285Z,25.00
2023-02-04T16:15:46.885Z,17.27
2023-02-04T16:17:49.526Z,19.65
2023-02-04T16:19:53.418Z,23.15
2023-02-04T16:21:56.286Z,21.20
2023-02-04T16:23:58.875Z,20.60
2023-02-04T16:26:01.428Z,18.73
2023-02-04T16:28:04.193Z,17.15
2023-02-04T16:30:07.851Z,15.57
2023-02-04T16:32:10.435Z,20.00
2023-02-04T16:34:12.991Z,16.52
2023-02-04T16:36:18.513Z,17.95
2023-02-04T16:38:21.329Z,21.45
2023-02-04T16:40:23.853Z,34.60
2023-02-04T16:42:26.504Z,25.30
2023-02-04T16:44:29.775Z,18.23
2023-02-04T16:46:33.847Z,23.63
2023-02-04T16:48:37.164Z,29.67
2023-02-04T16:50:39.733Z,24.45
2023-02-04T16:52:43.617Z,27.05
2023-02-04T16:54:46.238Z,25.83
2023-02-04T16:56:48.766Z,20.02
2023-02-04T16:58:51.358Z,23.95
2023-02-04T17:00:54.370Z,17.27
2023-02-04T17:02:57.156Z,26.40
2023-02-04T17:04:59.798Z,25.90
2023-02-04T17:07:02.497Z,17.60
2023-02-04T17:09:06.564Z,23.83
2023-02-04T17:11:26.849Z,25.25
2023-02-04T17:13:29.566Z,27.50
2023-02-04T17:15:32.535Z,26.33
2023-02-04T17:17:35.354Z,19.20
2023-02-04T17:19:37.890Z,18.48
2023-02-04T17:21:40.552Z,20.52
2023-02-04T17:23:45.621Z,20.05
2023-02-04T17:25:49.953Z,24.25
2023-02-04T17:27:53.421Z,18.70
2023-02-04T17:29:56.102Z,20.70
2023-02-04T17:31:58.674Z,20.00
2023-02-04T17:34:01.558Z,18.83
2023-02-04T17:36:05.231Z,17.98
2023-02-04T17:38:07.793Z,22.65
2023-02-04T17:40:13.445Z,18.20
2023-02-04T17:42:17.348Z,26.52
2023-02-04T17:44:23.741Z,25.90
2023-02-04T17:46:27.539Z,20.70
2023-02-04T17:48:30.714Z,29.75
2023-02-04T17:52:43.891Z,21.48
2023-02-04T17:54:46.433Z,25.00
2023-02-04T17:56:49.045Z,20.92
2023-02-04T17:58:52.972Z,20.42
2023-02-04T18:00:57.740Z,18.85
2023-02-04T18:03:00.660Z,21.08
2023-02-04T18:05:14.666Z,17.08
2023-02-04T18:07:17.257Z,28.42
2023-02-04T18:09:19.958Z,25.05
2023-02-04T18:11:27.276Z,25.00
2023-02-04T18:13:32.744Z,22.70
2023-02-04T18:15:37.120Z,18.70
2023-02-04T18:17:39.839Z,13.20
2023-02-04T18:19:44.915Z,26.85
2023-02-04T18:21:47.537Z,21.23
2023-02-04T18:24:01.358Z,21.40
2023-02-04T18:26:12.460Z,20.73
2023-02-04T18:28:17.905Z,17.77
2023-02-04T18:30:22.686Z,24.17
2023-02-04T18:32:34.392Z,23.33
2023-02-04T18:34:40.291Z,28.20
2023-02-04T18:36:42.899Z,28.77
2023-02-04T18:38:45.896Z,31.02
2023-02-04T18:40:49.327Z,24.90
2023-02-04T18:43:01.886Z,18.40
2023-02-04T18:45:19.889Z,23.88
2023-02-04T18:47:31.581Z,25.48
2023-02-04T18:49:38.115Z,22.33
2023-02-04T18:51:41.464Z,18.50
2023-02-04T18:53:44.011Z,23.55
2023-02-04T18:55:48.380Z,26.02
2023-02-04T18:57:50.966Z,22.73
2023-02-04T18:59:54.966Z,25.63
2023-02-04T19:01:57.680Z,22.00
2023-02-04T19:04:03.446Z,18.67
2023-02-04T19:06:25.013Z,30.27
2023-02-04T19:08:30.243Z,19.30
2023-02-04T19:10:34.739Z,17.40
2023-02-04T19:12:37.492Z,19.75
2023-02-04T19:14:41.850Z,23.63
2023-02-04T19:16:45.309Z,21.95
2023-02-04T19:18:48.418Z,32.00
2023-02-04T19:20:52.989Z,25.10
2023-02-04T19:22:56.891Z,21.10
2023-02-04T19:25:02.935Z,24.55
2023-02-04T19:27:29.095Z,25.50
2023-02-04T19:29:39.553Z,23.70
2023-02-04T19:31:42.819Z,24.92
2023-02-04T19:33:46.261Z,29.98
2023-02-04T19:35:49.538Z,22.52
2023-02-04T19:37:56.364Z,22.98
2023-02-04T19:39:58.945Z,24.75
2023-02-04T19:42:02.167Z,25.17
2023-02-04T19:44:41.753Z,36.55
2023-02-04T19:46:45.261Z,29.77
2023-02-04T19:48:48.235Z,24.63
2023-02-04T19:50:52.582Z,23.98
2023-02-04T19:53:01.902Z,33.78
2023-02-04T19:55:44.202Z,26.33
2023-02-04T19:59:50.357Z,29.13
2023-02-04T20:01:59.171Z,34.15
2023-02-04T20:04:02.912Z,24.27
2023-02-04T20:06:26.384Z,27.42
2023-02-04T20:08:45.875Z,20.83
2023-02-04T20:10:48.417Z,20.80
2023-02-04T20:12:52.288Z,27.23
2023-02-04T20:14:57.664Z,28.67
2023-02-04T20:17:03.382Z,25.17
2023-02-04T20:19:18.979Z,23.92
2023-02-04T20:21:21.570Z,36.63
2023-02-04T20:23:29.174Z,29.80
2023-02-04T20:25:43.642Z,26.67
2023-02-04T20:27:55.204Z,24.10
2023-02-04T20:30:02.838Z,36.25
2023-02-04T20:32:18.284Z,27.20
2023-02-04T20:34:23.865Z,23.63
2023-02-04T20:36:40.777Z,27.05
2023-02-04T20:38:43.430Z,19.67
2023-02-04T20:40:47.592Z,24.38
2023-02-04T20:42:52.879Z,23.95
2023-02-04T20:44:56.887Z,26.15
2023-02-04T20:47:11.774Z,24.67
2023-02-04T20:49:22.973Z,28.00
2023-02-04T20:51:26.933Z,31.65
2023-02-04T20:53:38.137Z,29.30
2023-02-04T20:55:40.758Z,24.92
2023-02-04T20:57:44.663Z,28.60
2023-02-04T20:59:49.447Z,32.85
2023-02-04T21:01:52.770Z,32.30
2023-02-04T21:03:56.216Z,28.80
2023-02-04T21:06:00.970Z,40.15
2023-02-04T21:08:05.666Z,38.03
2023-02-04T21:10:08.942Z,36.88
2023-02-04T21:12:12.090Z,33.83
2023-02-04T21:14:16.147Z,31.63
2023-02-04T21:16:19.580Z,40.53
2023-02-04T21:18:22.303Z,37.65
2023-02-04T21:20:25.438Z,37.47
2023-02-04T21:22:27.974Z,30.63
2023-02-04T21:24:31.712Z,47.33
2023-02-04T21:26:35.129Z,47.13
2023-02-04T21:28:37.786Z,42.08
2023-02-04T21:30:42.022Z,35.60
2023-02-04T21:32:44.983Z,38.33
2023-02-04T21:34:47.616Z,35.53
2023-02-04T21:36:50.245Z,32.38
2023-02-04T21:38:52.796Z,39.40
2023-02-04T21:40:55.344Z,33.88
2023-02-04T21:42:58.014Z,37.10
2023-02-04T21:45:01.798Z,30.23
2023-02-04T21:47:06.773Z,39.65
2023-02-04T21:49:09.331Z,34.50
2023-02-04T21:51:12.747Z,30.80
2023-02-04T21:53:15.485Z,36.53
2023-02-04T21:55:21.367Z,33.00
2023-02-04T21:57:24.007Z,32.60
2023-02-04T21:59:26.600Z,33.58
2023-02-04T22:01:29.232Z,29.38
2023-02-04T22:03:33.310Z,34.40
2023-02-04T22:05:36.134Z,42.85
2023-02-04T22:07:40.220Z,30.95
2023-02-04T22:09:42.782Z,34.25
2023-02-04T22:11:48.174Z,40.88
2023-02-04T22:13:50.759Z,31.50
2023-02-04T22:15:53.347Z,37.65
2023-02-04T22:17:56.889Z,36.97
2023-02-04T22:20:00.819Z,31.38
2023-02-04T22:22:03.445Z,40.83
2023-02-04T22:24:06.603Z,35.03
2023-02-04T22:26:09.496Z,39.25
2023-02-04T22:28:12.070Z,39.10
2023-02-04T22:30:16.686Z,40.22
2023-02-04T22:32:19.285Z,36.42
2023-02-04T22:34:22.224Z,35.28
2023-02-04T22:36:26.216Z,35.70
2023-02-04T22:38:28.797Z,35.75
2023-02-04T22:40:31.399Z,43.85
2023-02-04T22:42:33.948Z,38.40
2023-02-04T22:44:36.591Z,34.17
2023-02-04T22:46:39.208Z,40.88
2023-02-04T22:48:41.777Z,33.70
2023-02-04T22:50:44.339Z,34.33
2023-02-04T22:52:48.260Z,41.47
2023-02-04T22:54:50.864Z,35.03
2023-02-04T22:56:53.411Z,37.03
2023-02-04T22:58:55.978Z,36.80
2023-02-04T23:00:58.617Z,39.72
2023-02-04T23:03:01.266Z,40.10
2023-02-04T23:05:04.074Z,35.08
2023-02-04T23:07:08.435Z,33.15
2023-02-04T23:09:12.583Z,39.28
2023-02-04T23:11:15.748Z,37.42
2023-02-04T23:13:19.141Z,34.00
2023-02-04T23:15:21.970Z,29.00
2023-02-04T23:17:24.601Z,38.30
2023-02-04T23:19:27.160Z,30.35
2023-02-04T23:21:29.894Z,34.95
2023-02-04T23:23:32.534Z,32.13
2023-02-04T23:25:37.233Z,33.03
2023-02-04T23:27:40.057Z,29.70
2023-02-04T23:29:42.962Z,33.22
2023-02-04T23:31:45.647Z,38.13
2023-02-04T23:33:48.252Z,30.60
2023-02-04T23:35:51.119Z,32.00
2023-02-04T23:37:53.738Z,26.23
2023-02-04T23:39:56.289Z,32.58
2023-02-04T23:42:00.214Z,36.00
2023-02-04T23:44:02.766Z,29.40
2023-02-04T23:46:05.556Z,28.65
2023-02-04T23:48:08.291Z,37.85
2023-02-04T23:50:11.304Z,37.42
2023-02-04T23:52:13.879Z,35.80
2023-02-04T23:54:16.531Z,31.33
2023-02-04T23:56:19.089Z,37.22
2023-02-04T23:58:23.039Z,35.33
